sensor_id;sensor_type;location;lat;lon;timestamp;temperature;humidity
49579;DHT22;35483;50.828;3.228;2023-04-01T00:01:46;11.50;99.90
49579;DHT22;35483;50.828;3.228;2023-04-01T00:04:12;11.50;99.90
49579;DHT22;35483;50.828;3.228;2023-04-01T00:06:38;11.50;99.90
49579;DHT22;35483;50.828;3.228;2023-04-01T00:09:03;11.50;99.90
49579;DHT22;35483;50.828;3.228;2023-04-01T00:11:30;11.50;99.90
49579;DHT22;35483;50.828;3.228;2023-04-01T00:13:55;11.50;99.90
49579;DHT22;35483;50.828;3.228;2023-04-01T00:16:21;11.50;99.90
49579;DHT22;35483;50.828;3.228;2023-04-01T00:18:48;11.50;99.90
49579;DHT22;35483;50.828;3.228;2023-04-01T00:21:13;11.60;99.90
49579;DHT22;35483;50.828;3.228;2023-04-01T00:23:39;11.50;99.90
49579;DHT22;35483;50.828;3.228;2023-04-01T00:26:05;11.50;99.90
49579;DHT22;35483;50.828;3.228;2023-04-01T00:28:31;11.60;99.90
49579;DHT22;35483;50.828;3.228;2023-04-01T00:30:58;11.60;99.90
49579;DHT22;35483;50.828;3.228;2023-04-01T00:33:28;11.60;99.90
49579;DHT22;35483;50.828;3.228;2023-04-01T00:35:54;11.60;99.90
49579;DHT22;35483;50.828;3.228;2023-04-01T00:38:19;11.60;99.90
49579;DHT22;35483;50.828;3.228;2023-04-01T00:40:46;11.70;99.90
49579;DHT22;35483;50.828;3.228;2023-04-01T00:43:15;11.70;99.90
49579;DHT22;35483;50.828;3.228;2023-04-01T00:45:44;11.60;99.90
49579;DHT22;35483;50.828;3.228;2023-04-01T00:50:43;11.60;99.90
49579;DHT22;35483;50.828;3.228;2023-04-01T00:53:10;11.60;99.90
49579;DHT22;35483;50.828;3.228;2023-04-01T00:55:41;11.60;99.90
49579;DHT22;35483;50.828;3.228;2023-04-01T00:58:13;11.60;99.90
49579;DHT22;35483;50.828;3.228;2023-04-01T01:00:41;11.60;99.90
49579;DHT22;35483;50.828;3.228;2023-04-01T01:03:07;11.60;99.90
49579;DHT22;35483;50.828;3.228;2023-04-01T01:06:06;11.60;99.90
49579;DHT22;35483;50.828;3.228;2023-04-01T01:10:56;11.60;99.90
49579;DHT22;35483;50.828;3.228;2023-04-01T01:13:43;11.60;99.90
49579;DHT22;35483;50.828;3.228;2023-04-01T01:16:20;11.60;99.90
49579;DHT22;35483;50.828;3.228;2023-04-01T01:25:00;11.60;99.90
49579;DHT22;35483;50.828;3.228;2023-04-01T01:27:30;11.50;99.90
49579;DHT22;35483;50.828;3.228;2023-04-01T01:30:19;11.60;99.90
49579;DHT22;35483;50.828;3.228;2023-04-01T01:33:02;11.70;99.90
49579;DHT22;35483;50.828;3.228;2023-04-01T01:35:38;11.60;99.90
49579;DHT22;35483;50.828;3.228;2023-04-01T01:38:13;11.70;99.90
49579;DHT22;35483;50.828;3.228;2023-04-01T01:40:43;11.60;99.90
49579;DHT22;35483;50.828;3.228;2023-04-01T01:43:12;11.60;99.90
49579;DHT22;35483;50.828;3.228;2023-04-01T01:45:44;11.60;99.90
49579;DHT22;35483;50.828;3.228;2023-04-01T01:48:13;11.70;99.90
49579;DHT22;35483;50.828;3.228;2023-04-01T01:50:41;11.60;99.90
49579;DHT22;35483;50.828;3.228;2023-04-01T01:53:10;11.60;99.90
49579;DHT22;35483;50.828;3.228;2023-04-01T01:55:42;11.50;99.90
49579;DHT22;35483;50.828;3.228;2023-04-01T01:58:20;11.60;99.90
49579;DHT22;35483;50.828;3.228;2023-04-01T02:00:54;11.50;99.90
49579;DHT22;35483;50.828;3.228;2023-04-01T02:03:23;11.50;99.90
49579;DHT22;35483;50.828;3.228;2023-04-01T02:05:52;11.40;99.90
49579;DHT22;35483;50.828;3.228;2023-04-01T02:08:29;11.40;99.90
49579;DHT22;35483;50.828;3.228;2023-04-01T02:11:00;11.50;99.90
49579;DHT22;35483;50.828;3.228;2023-04-01T02:13:35;11.50;99.90
49579;DHT22;35483;50.828;3.228;2023-04-01T02:16:08;11.60;99.90
49579;DHT22;35483;50.828;3.228;2023-04-01T02:18:37;11.60;99.90
49579;DHT22;35483;50.828;3.228;2023-04-01T02:21:04;11.60;99.90
49579;DHT22;35483;50.828;3.228;2023-04-01T02:23:33;11.60;99.90
49579;DHT22;35483;50.828;3.228;2023-04-01T02:26:00;11.60;99.90
49579;DHT22;35483;50.828;3.228;2023-04-01T02:28:27;11.50;99.90
49579;DHT22;35483;50.828;3.228;2023-04-01T02:30:54;11.50;99.90
49579;DHT22;35483;50.828;3.228;2023-04-01T02:33:21;11.50;99.90
49579;DHT22;35483;50.828;3.228;2023-04-01T02:35:48;11.50;99.90
49579;DHT22;35483;50.828;3.228;2023-04-01T02:38:14;11.50;99.90
49579;DHT22;35483;50.828;3.228;2023-04-01T02:40:56;11.50;99.90
49579;DHT22;35483;50.828;3.228;2023-04-01T02:43:22;11.50;99.90
49579;DHT22;35483;50.828;3.228;2023-04-01T02:45:48;11.50;99.90
49579;DHT22;35483;50.828;3.228;2023-04-01T02:48:14;11.50;99.90
49579;DHT22;35483;50.828;3.228;2023-04-01T02:50:40;11.50;99.90
49579;DHT22;35483;50.828;3.228;2023-04-01T02:53:06;11.50;99.90
49579;DHT22;35483;50.828;3.228;2023-04-01T02:55:33;11.40;99.90
49579;DHT22;35483;50.828;3.228;2023-04-01T02:57:59;11.40;99.90
49579;DHT22;35483;50.828;3.228;2023-04-01T03:00:25;11.40;99.90
49579;DHT22;35483;50.828;3.228;2023-04-01T03:02:51;11.30;99.90
49579;DHT22;35483;50.828;3.228;2023-04-01T03:05:17;11.30;99.90
49579;DHT22;35483;50.828;3.228;2023-04-01T03:07:43;11.30;99.90
49579;DHT22;35483;50.828;3.228;2023-04-01T03:10:10;11.30;99.90
49579;DHT22;35483;50.828;3.228;2023-04-01T03:12:36;11.30;99.90
49579;DHT22;35483;50.828;3.228;2023-04-01T03:15:02;11.30;99.90
49579;DHT22;35483;50.828;3.228;2023-04-01T03:17:28;11.30;99.90
49579;DHT22;35483;50.828;3.228;2023-04-01T03:19:53;11.30;99.90
49579;DHT22;35483;50.828;3.228;2023-04-01T03:22:19;11.30;99.90
49579;DHT22;35483;50.828;3.228;2023-04-01T03:24:47;11.20;99.90
49579;DHT22;35483;50.828;3.228;2023-04-01T03:27:14;11.20;99.90
49579;DHT22;35483;50.828;3.228;2023-04-01T03:29:39;11.10;99.90
49579;DHT22;35483;50.828;3.228;2023-04-01T03:32:05;11.10;99.90
49579;DHT22;35483;50.828;3.228;2023-04-01T03:34:31;11.20;99.90
49579;DHT22;35483;50.828;3.228;2023-04-01T03:36:57;11.20;99.90
49579;DHT22;35483;50.828;3.228;2023-04-01T03:39:23;11.20;99.90
49579;DHT22;35483;50.828;3.228;2023-04-01T03:41:49;11.20;99.90
49579;DHT22;35483;50.828;3.228;2023-04-01T03:44:14;11.20;99.90
49579;DHT22;35483;50.828;3.228;2023-04-01T03:46:40;11.20;99.90
49579;DHT22;35483;50.828;3.228;2023-04-01T03:49:07;11.30;99.90
49579;DHT22;35483;50.828;3.228;2023-04-01T03:51:38;11.30;99.90
49579;DHT22;35483;50.828;3.228;2023-04-01T03:54:04;11.20;99.90
49579;DHT22;35483;50.828;3.228;2023-04-01T03:56:30;11.20;99.90
49579;DHT22;35483;50.828;3.228;2023-04-01T03:58:56;11.20;99.90
49579;DHT22;35483;50.828;3.228;2023-04-01T04:01:22;11.20;99.90
49579;DHT22;35483;50.828;3.228;2023-04-01T04:03:48;11.20;99.90
49579;DHT22;35483;50.828;3.228;2023-04-01T04:06:15;11.10;99.90
49579;DHT22;35483;50.828;3.228;2023-04-01T04:08:41;11.10;99.90
49579;DHT22;35483;50.828;3.228;2023-04-01T04:11:07;11.00;99.90
49579;DHT22;35483;50.828;3.228;2023-04-01T04:13:33;11.10;99.90
49579;DHT22;35483;50.828;3.228;2023-04-01T04:15:58;11.00;99.90
49579;DHT22;35483;50.828;3.228;2023-04-01T04:18:24;11.00;99.90
49579;DHT22;35483;50.828;3.228;2023-04-01T04:20:50;11.00;99.90
49579;DHT22;35483;50.828;3.228;2023-04-01T04:23:17;11.00;99.90
49579;DHT22;35483;50.828;3.228;2023-04-01T04:28:25;11.10;99.90
49579;DHT22;35483;50.828;3.228;2023-04-01T04:30:51;11.10;99.90
49579;DHT22;35483;50.828;3.228;2023-04-01T04:33:18;11.10;99.90
49579;DHT22;35483;50.828;3.228;2023-04-01T04:35:43;11.10;99.90
49579;DHT22;35483;50.828;3.228;2023-04-01T04:38:09;11.20;99.90
49579;DHT22;35483;50.828;3.228;2023-04-01T04:40:39;11.10;99.90
49579;DHT22;35483;50.828;3.228;2023-04-01T04:43:05;11.20;99.90
49579;DHT22;35483;50.828;3.228;2023-04-01T04:45:31;11.20;99.90
49579;DHT22;35483;50.828;3.228;2023-04-01T04:47:57;11.10;99.90
49579;DHT22;35483;50.828;3.228;2023-04-01T04:50:24;11.20;99.90
49579;DHT22;35483;50.828;3.228;2023-04-01T04:52:50;11.10;99.90
49579;DHT22;35483;50.828;3.228;2023-04-01T04:55:15;11.10;99.90
49579;DHT22;35483;50.828;3.228;2023-04-01T04:57:41;11.10;99.90
49579;DHT22;35483;50.828;3.228;2023-04-01T05:00:08;11.20;99.90
49579;DHT22;35483;50.828;3.228;2023-04-01T05:02:35;11.20;99.90
49579;DHT22;35483;50.828;3.228;2023-04-01T05:05:01;11.20;99.90
49579;DHT22;35483;50.828;3.228;2023-04-01T05:07:27;11.20;99.90
49579;DHT22;35483;50.828;3.228;2023-04-01T05:09:52;11.20;99.90
49579;DHT22;35483;50.828;3.228;2023-04-01T05:12:18;11.20;99.90
49579;DHT22;35483;50.828;3.228;2023-04-01T05:14:44;11.10;99.90
49579;DHT22;35483;50.828;3.228;2023-04-01T05:17:11;11.20;99.90
49579;DHT22;35483;50.828;3.228;2023-04-01T05:19:37;11.20;99.90
49579;DHT22;35483;50.828;3.228;2023-04-01T05:22:03;11.20;99.90
49579;DHT22;35483;50.828;3.228;2023-04-01T05:24:29;11.20;99.90
49579;DHT22;35483;50.828;3.228;2023-04-01T05:26:55;11.20;99.90
49579;DHT22;35483;50.828;3.228;2023-04-01T05:29:23;11.10;99.90
49579;DHT22;35483;50.828;3.228;2023-04-01T05:31:49;11.10;99.90
49579;DHT22;35483;50.828;3.228;2023-04-01T05:34:15;11.10;99.90
49579;DHT22;35483;50.828;3.228;2023-04-01T05:36:41;11.10;99.90
49579;DHT22;35483;50.828;3.228;2023-04-01T05:39:07;11.10;99.90
49579;DHT22;35483;50.828;3.228;2023-04-01T05:41:37;11.10;99.90
49579;DHT22;35483;50.828;3.228;2023-04-01T05:44:04;11.10;99.90
49579;DHT22;35483;50.828;3.228;2023-04-01T05:46:31;11.10;99.90
49579;DHT22;35483;50.828;3.228;2023-04-01T05:48:57;11.10;99.90
49579;DHT22;35483;50.828;3.228;2023-04-01T05:51:22;11.10;99.90
49579;DHT22;35483;50.828;3.228;2023-04-01T05:53:48;11.10;99.90
49579;DHT22;35483;50.828;3.228;2023-04-01T05:56:14;11.10;99.90
49579;DHT22;35483;50.828;3.228;2023-04-01T05:58:40;11.10;99.90
49579;DHT22;35483;50.828;3.228;2023-04-01T06:01:08;11.20;99.90
49579;DHT22;35483;50.828;3.228;2023-04-01T06:03:34;11.10;99.90
49579;DHT22;35483;50.828;3.228;2023-04-01T06:06:00;11.20;99.90
49579;DHT22;35483;50.828;3.228;2023-04-01T06:08:27;11.10;99.90
49579;DHT22;35483;50.828;3.228;2023-04-01T06:16:31;11.10;99.90
49579;DHT22;35483;50.828;3.228;2023-04-01T06:22:13;11.10;99.90
49579;DHT22;35483;50.828;3.228;2023-04-01T06:28:42;11.20;99.90
49579;DHT22;35483;50.828;3.228;2023-04-01T06:31:09;11.10;99.90
49579;DHT22;35483;50.828;3.228;2023-04-01T06:33:50;11.10;99.90
49579;DHT22;35483;50.828;3.228;2023-04-01T06:36:43;11.10;99.90
49579;DHT22;35483;50.828;3.228;2023-04-01T06:51:08;11.10;99.90
49579;DHT22;35483;50.828;3.228;2023-04-01T06:56:14;11.10;99.90
49579;DHT22;35483;50.828;3.228;2023-04-01T06:58:51;11.10;99.90
49579;DHT22;35483;50.828;3.228;2023-04-01T07:01:34;11.20;99.90
49579;DHT22;35483;50.828;3.228;2023-04-01T07:04:13;11.20;99.90
49579;DHT22;35483;50.828;3.228;2023-04-01T07:06:58;11.10;99.90
49579;DHT22;35483;50.828;3.228;2023-04-01T07:09:31;11.30;99.90
49579;DHT22;35483;50.828;3.228;2023-04-01T07:12:01;11.30;99.90
49579;DHT22;35483;50.828;3.228;2023-04-01T07:14:39;11.20;99.90
49579;DHT22;35483;50.828;3.228;2023-04-01T07:17:25;11.30;99.90
49579;DHT22;35483;50.828;3.228;2023-04-01T07:22:36;11.30;99.90
49579;DHT22;35483;50.828;3.228;2023-04-01T07:25:24;11.30;99.90
49579;DHT22;35483;50.828;3.228;2023-04-01T07:27:55;11.30;99.90
49579;DHT22;35483;50.828;3.228;2023-04-01T07:30:24;11.30;99.90
49579;DHT22;35483;50.828;3.228;2023-04-01T07:33:00;11.30;99.90
49579;DHT22;35483;50.828;3.228;2023-04-01T07:35:36;11.30;99.90
49579;DHT22;35483;50.828;3.228;2023-04-01T07:48:31;11.60;99.90
49579;DHT22;35483;50.828;3.228;2023-04-01T07:51:20;11.60;99.90
49579;DHT22;35483;50.828;3.228;2023-04-01T07:53:51;11.50;99.90
49579;DHT22;35483;50.828;3.228;2023-04-01T07:59:18;11.40;99.90
49579;DHT22;35483;50.828;3.228;2023-04-01T08:07:13;11.30;99.90
49579;DHT22;35483;50.828;3.228;2023-04-01T08:12:47;11.40;99.90
49579;DHT22;35483;50.828;3.228;2023-04-01T08:15:28;11.50;99.90
49579;DHT22;35483;50.828;3.228;2023-04-01T08:21:01;11.50;99.90
49579;DHT22;35483;50.828;3.228;2023-04-01T08:23:31;11.60;99.90
49579;DHT22;35483;50.828;3.228;2023-04-01T08:26:00;11.70;99.90
49579;DHT22;35483;50.828;3.228;2023-04-01T08:28:40;11.60;99.90
49579;DHT22;35483;50.828;3.228;2023-04-01T08:31:16;11.60;99.90
49579;DHT22;35483;50.828;3.228;2023-04-01T08:33:46;11.70;99.90
49579;DHT22;35483;50.828;3.228;2023-04-01T08:36:31;11.70;99.90
49579;DHT22;35483;50.828;3.228;2023-04-01T08:39:07;11.70;99.90
49579;DHT22;35483;50.828;3.228;2023-04-01T08:50:19;11.60;99.90
49579;DHT22;35483;50.828;3.228;2023-04-01T09:00:56;12.00;99.90
49579;DHT22;35483;50.828;3.228;2023-04-01T09:03:58;12.00;99.90
49579;DHT22;35483;50.828;3.228;2023-04-01T09:06:51;12.00;99.90
49579;DHT22;35483;50.828;3.228;2023-04-01T09:12:07;12.20;99.90
49579;DHT22;35483;50.828;3.228;2023-04-01T09:26:02;12.00;99.90
49579;DHT22;35483;50.828;3.228;2023-04-01T09:31:24;12.00;99.90
49579;DHT22;35483;50.828;3.228;2023-04-01T09:36:45;12.00;99.90
49579;DHT22;35483;50.828;3.228;2023-04-01T09:44:35;12.20;99.90
49579;DHT22;35483;50.828;3.228;2023-04-01T09:47:28;12.20;99.90
49579;DHT22;35483;50.828;3.228;2023-04-01T09:56:03;12.70;99.90
49579;DHT22;35483;50.828;3.228;2023-04-01T09:58:51;12.80;99.90
49579;DHT22;35483;50.828;3.228;2023-04-01T10:27:06;13.10;99.90
49579;DHT22;35483;50.828;3.228;2023-04-01T10:44:23;12.50;99.90
49579;DHT22;35483;50.828;3.228;2023-04-01T11:01:07;12.30;99.90
49579;DHT22;35483;50.828;3.228;2023-04-01T11:03:53;12.30;99.90
49579;DHT22;35483;50.828;3.228;2023-04-01T11:15:34;12.30;99.90
49579;DHT22;35483;50.828;3.228;2023-04-01T11:33:00;12.80;99.90
49579;DHT22;35483;50.828;3.228;2023-04-01T11:39:00;13.00;99.90
49579;DHT22;35483;50.828;3.228;2023-04-01T11:41:42;13.00;99.90
49579;DHT22;35483;50.828;3.228;2023-04-01T12:06:18;12.70;99.90
49579;DHT22;35483;50.828;3.228;2023-04-01T12:09:16;12.70;99.90
49579;DHT22;35483;50.828;3.228;2023-04-01T12:14:30;12.70;99.90
49579;DHT22;35483;50.828;3.228;2023-04-01T12:25:22;12.80;99.90
49579;DHT22;35483;50.828;3.228;2023-04-01T12:33:52;13.10;99.90
49579;DHT22;35483;50.828;3.228;2023-04-01T12:39:20;13.30;99.90
49579;DHT22;35483;50.828;3.228;2023-04-01T12:44:22;13.20;99.90
49579;DHT22;35483;50.828;3.228;2023-04-01T12:52:44;13.20;99.90
49579;DHT22;35483;50.828;3.228;2023-04-01T13:06:28;12.50;99.90
49579;DHT22;35483;50.828;3.228;2023-04-01T13:09:19;12.50;99.90
49579;DHT22;35483;50.828;3.228;2023-04-01T13:11:50;12.60;99.90
49579;DHT22;35483;50.828;3.228;2023-04-01T13:14:37;12.50;99.90
49579;DHT22;35483;50.828;3.228;2023-04-01T13:17:17;12.50;99.90
49579;DHT22;35483;50.828;3.228;2023-04-01T13:19:55;12.50;99.90
49579;DHT22;35483;50.828;3.228;2023-04-01T13:22:51;12.60;99.90
49579;DHT22;35483;50.828;3.228;2023-04-01T13:27:51;12.60;99.90
49579;DHT22;35483;50.828;3.228;2023-04-01T13:30:49;12.70;99.90
49579;DHT22;35483;50.828;3.228;2023-04-01T13:39:33;12.40;99.90
49579;DHT22;35483;50.828;3.228;2023-04-01T13:42:21;12.40;99.90
49579;DHT22;35483;50.828;3.228;2023-04-01T13:45:01;12.40;99.90
49579;DHT22;35483;50.828;3.228;2023-04-01T13:50:15;12.20;99.90
49579;DHT22;35483;50.828;3.228;2023-04-01T13:52:47;12.20;99.90
49579;DHT22;35483;50.828;3.228;2023-04-01T13:58:28;12.00;99.90
49579;DHT22;35483;50.828;3.228;2023-04-01T14:12:27;12.40;99.90
49579;DHT22;35483;50.828;3.228;2023-04-01T14:15:26;12.30;99.90
49579;DHT22;35483;50.828;3.228;2023-04-01T14:18:04;12.30;99.90
49579;DHT22;35483;50.828;3.228;2023-04-01T14:37:23;12.30;99.90
49579;DHT22;35483;50.828;3.228;2023-04-01T14:54:00;12.00;99.90
49579;DHT22;35483;50.828;3.228;2023-04-01T14:56:38;11.70;99.90
49579;DHT22;35483;50.828;3.228;2023-04-01T14:59:30;11.70;99.90
49579;DHT22;35483;50.828;3.228;2023-04-01T15:04:33;11.60;99.90
49579;DHT22;35483;50.828;3.228;2023-04-01T15:10:11;11.60;99.90
49579;DHT22;35483;50.828;3.228;2023-04-01T15:23:54;11.50;99.90
49579;DHT22;35483;50.828;3.228;2023-04-01T15:29:36;11.30;99.90
49579;DHT22;35483;50.828;3.228;2023-04-01T15:32:26;11.20;99.90
49579;DHT22;35483;50.828;3.228;2023-04-01T15:35:21;11.30;99.90
49579;DHT22;35483;50.828;3.228;2023-04-01T15:37:57;11.30;99.90
49579;DHT22;35483;50.828;3.228;2023-04-01T15:40:45;11.20;99.90
49579;DHT22;35483;50.828;3.228;2023-04-01T15:43:27;11.00;99.90
49579;DHT22;35483;50.828;3.228;2023-04-01T15:54:22;11.20;99.90
49579;DHT22;35483;50.828;3.228;2023-04-01T16:00:10;11.00;99.90
49579;DHT22;35483;50.828;3.228;2023-04-01T16:08:35;10.90;99.90
49579;DHT22;35483;50.828;3.228;2023-04-01T16:16:25;10.90;99.90
49579;DHT22;35483;50.828;3.228;2023-04-01T16:22:03;10.90;99.90
49579;DHT22;35483;50.828;3.228;2023-04-01T16:24:45;10.80;99.90
49579;DHT22;35483;50.828;3.228;2023-04-01T16:35:35;10.70;99.90
49579;DHT22;35483;50.828;3.228;2023-04-01T16:38:33;10.70;99.90
49579;DHT22;35483;50.828;3.228;2023-04-01T16:41:14;10.70;99.90
49579;DHT22;35483;50.828;3.228;2023-04-01T16:43:48;10.70;99.90
49579;DHT22;35483;50.828;3.228;2023-04-01T16:56:56;10.50;99.90
49579;DHT22;35483;50.828;3.228;2023-04-01T16:59:34;10.60;99.90
49579;DHT22;35483;50.828;3.228;2023-04-01T17:04:44;10.60;99.90
49579;DHT22;35483;50.828;3.228;2023-04-01T17:15:59;10.50;99.90
49579;DHT22;35483;50.828;3.228;2023-04-01T17:21:00;10.50;99.90
49579;DHT22;35483;50.828;3.228;2023-04-01T17:26:20;10.40;99.90
49579;DHT22;35483;50.828;3.228;2023-04-01T17:35:11;10.50;99.90
49579;DHT22;35483;50.828;3.228;2023-04-01T17:38:04;10.60;99.90
49579;DHT22;35483;50.828;3.228;2023-04-01T17:40:53;10.60;99.90
49579;DHT22;35483;50.828;3.228;2023-04-01T17:49:32;10.60;99.90
49579;DHT22;35483;50.828;3.228;2023-04-01T18:00:33;10.50;99.90
49579;DHT22;35483;50.828;3.228;2023-04-01T18:03:28;10.50;99.90
49579;DHT22;35483;50.828;3.228;2023-04-01T18:07:08;10.50;99.90
49579;DHT22;35483;50.828;3.228;2023-04-01T18:17:25;10.60;99.90
49579;DHT22;35483;50.828;3.228;2023-04-01T18:25:21;10.50;99.90
49579;DHT22;35483;50.828;3.228;2023-04-01T18:30:36;10.40;99.90
49579;DHT22;35483;50.828;3.228;2023-04-01T18:36:08;10.40;99.90
49579;DHT22;35483;50.828;3.228;2023-04-01T18:38:38;10.30;99.90
49579;DHT22;35483;50.828;3.228;2023-04-01T18:49:16;10.10;99.90
49579;DHT22;35483;50.828;3.228;2023-04-01T18:54:44;10.20;99.90
49579;DHT22;35483;50.828;3.228;2023-04-01T18:57:14;10.10;99.90
49579;DHT22;35483;50.828;3.228;2023-04-01T18:59:41;10.20;99.90
49579;DHT22;35483;50.828;3.228;2023-04-01T19:02:24;10.20;99.90
49579;DHT22;35483;50.828;3.228;2023-04-01T19:05:12;10.20;99.90
49579;DHT22;35483;50.828;3.228;2023-04-01T19:07:46;10.10;99.90
49579;DHT22;35483;50.828;3.228;2023-04-01T19:10:36;10.20;99.90
49579;DHT22;35483;50.828;3.228;2023-04-01T19:15:39;10.20;99.90
49579;DHT22;35483;50.828;3.228;2023-04-01T19:21:38;10.20;99.90
49579;DHT22;35483;50.828;3.228;2023-04-01T19:37:39;10.20;99.90
49579;DHT22;35483;50.828;3.228;2023-04-01T19:48:41;10.20;99.90
49579;DHT22;35483;50.828;3.228;2023-04-01T19:54:28;10.30;99.90
49579;DHT22;35483;50.828;3.228;2023-04-01T19:57:03;10.30;99.90
49579;DHT22;35483;50.828;3.228;2023-04-01T19:59:37;10.20;99.90
49579;DHT22;35483;50.828;3.228;2023-04-01T20:04:51;10.10;99.90
49579;DHT22;35483;50.828;3.228;2023-04-01T20:07:38;10.00;99.90
49579;DHT22;35483;50.828;3.228;2023-04-01T20:15:39;10.10;99.90
49579;DHT22;35483;50.828;3.228;2023-04-01T20:18:23;10.10;99.90
49579;DHT22;35483;50.828;3.228;2023-04-01T20:21:02;10.00;99.90
49579;DHT22;35483;50.828;3.228;2023-04-01T20:23:50;10.00;99.90
49579;DHT22;35483;50.828;3.228;2023-04-01T20:26:25;10.00;99.90
49579;DHT22;35483;50.828;3.228;2023-04-01T20:29:15;10.00;99.90
49579;DHT22;35483;50.828;3.228;2023-04-01T20:32:12;10.00;99.90
49579;DHT22;35483;50.828;3.228;2023-04-01T20:37:48;10.00;99.90
49579;DHT22;35483;50.828;3.228;2023-04-01T20:40:26;10.00;99.90
49579;DHT22;35483;50.828;3.228;2023-04-01T20:43:30;10.00;99.90
49579;DHT22;35483;50.828;3.228;2023-04-01T20:51:06;9.80;99.90
49579;DHT22;35483;50.828;3.228;2023-04-01T20:56:11;9.80;99.90
49579;DHT22;35483;50.828;3.228;2023-04-01T21:01:53;9.90;99.90
49579;DHT22;35483;50.828;3.228;2023-04-01T21:04:46;9.80;99.90
49579;DHT22;35483;50.828;3.228;2023-04-01T21:07:20;9.70;99.90
49579;DHT22;35483;50.828;3.228;2023-04-01T21:12:56;9.70;99.90
49579;DHT22;35483;50.828;3.228;2023-04-01T21:27:20;9.60;99.90
49579;DHT22;35483;50.828;3.228;2023-04-01T21:38:28;9.50;99.90
49579;DHT22;35483;50.828;3.228;2023-04-01T21:41:08;9.50;99.90
49579;DHT22;35483;50.828;3.228;2023-04-01T21:52:45;9.40;99.90
49579;DHT22;35483;50.828;3.228;2023-04-01T22:06:41;9.30;99.90
49579;DHT22;35483;50.828;3.228;2023-04-01T22:09:29;9.20;99.90
49579;DHT22;35483;50.828;3.228;2023-04-01T22:14:44;9.00;99.90
49579;DHT22;35483;50.828;3.228;2023-04-01T22:17:43;8.90;99.90
49579;DHT22;35483;50.828;3.228;2023-04-01T22:20:38;8.90;99.90
49579;DHT22;35483;50.828;3.228;2023-04-01T22:23:23;9.00;99.90
49579;DHT22;35483;50.828;3.228;2023-04-01T22:26:09;8.80;99.90
49579;DHT22;35483;50.828;3.228;2023-04-01T22:31:11;8.90;99.90
49579;DHT22;35483;50.828;3.228;2023-04-01T22:36:54;8.90;99.90
49579;DHT22;35483;50.828;3.228;2023-04-01T22:39:35;8.90;99.90
49579;DHT22;35483;50.828;3.228;2023-04-01T22:45:04;8.90;99.90
49579;DHT22;35483;50.828;3.228;2023-04-01T22:50:19;9.10;99.90
49579;DHT22;35483;50.828;3.228;2023-04-01T22:52:46;9.10;99.90
49579;DHT22;35483;50.828;3.228;2023-04-01T22:55:15;9.00;99.90
49579;DHT22;35483;50.828;3.228;2023-04-01T22:58:11;9.00;99.90
49579;DHT22;35483;50.828;3.228;2023-04-01T23:00:58;9.20;99.90
49579;DHT22;35483;50.828;3.228;2023-04-01T23:03:43;9.00;99.90
49579;DHT22;35483;50.828;3.228;2023-04-01T23:06:32;9.00;99.90
49579;DHT22;35483;50.828;3.228;2023-04-01T23:09:33;9.10;99.90
49579;DHT22;35483;50.828;3.228;2023-04-01T23:12:07;9.20;99.90
49579;DHT22;35483;50.828;3.228;2023-04-01T23:14:41;9.10;99.90
49579;DHT22;35483;50.828;3.228;2023-04-01T23:17:34;9.10;99.90
49579;DHT22;35483;50.828;3.228;2023-04-01T23:22:56;9.30;99.90
49579;DHT22;35483;50.828;3.228;2023-04-01T23:33:32;9.20;99.90
49579;DHT22;35483;50.828;3.228;2023-04-01T23:38:36;9.20;99.90
49579;DHT22;35483;50.828;3.228;2023-04-01T23:41:03;9.20;99.90
49579;DHT22;35483;50.828;3.228;2023-04-01T23:43:33;9.30;99.90
49579;DHT22;35483;50.828;3.228;2023-04-01T23:46:02;9.30;99.90
49579;DHT22;35483;50.828;3.228;2023-04-01T23:48:35;9.30;99.90
49579;DHT22;35483;50.828;3.228;2023-04-01T23:51:02;9.20;99.90
49579;DHT22;35483;50.828;3.228;2023-04-01T23:53:32;9.20;99.90
49579;DHT22;35483;50.828;3.228;2023-04-01T23:55:58;9.20;99.90
49579;DHT22;35483;50.828;3.228;2023-04-01T23:58:45;9.20;99.90
